Time;durP1;ratioP1;P1;durP2;ratioP2;P2;SDS_P1;SDS_P2;PMS_P1;PMS_P2;Temp;Humidity;BMP_temperature;BMP_pressure;BME280_temperature;BME280_humidity;BME280_pressure;Samples;Min_cycle;Max_cycle;Signal;HPM_P1;HPM_P2
2022/12/12 00:01:55;;;;;;;;;;;;;;;7.00;nan;100882.03;5007321;28;19956;-32
2022/12/12 00:04:20;;;;;;;;;;;;;;;7.02;nan;100877.34;5007585;28;20419;-32
2022/12/12 00:06:46;;;;;;;;;;;;;;;7.03;nan;100876.31;5008125;28;19992;-32
2022/12/12 00:09:11;;;;;;;;;;;;;;;7.02;nan;100872.00;5007173;28;19918;-32
2022/12/12 00:11:37;;;;;;;;;;;;;;;6.99;nan;100881.22;5007067;28;20032;-32
2022/12/12 00:14:02;;;;;;;;;;;;;;;6.95;nan;100874.72;5007796;28;20342;-32
2022/12/12 00:16:28;;;;;;;;;;;;;;;6.91;nan;100861.03;5007717;28;20332;-32
2022/12/12 00:18:53;;;;;;;;;;;;;;;6.92;nan;100862.66;5006593;28;20194;-32
2022/12/12 00:21:21;;;;;;;;;;;;;;;6.92;nan;100865.34;5007659;28;19921;-32
2022/12/12 00:23:46;;;;;;;;;;;;;;;6.90;nan;100869.25;5006914;28;19924;-31
2022/12/12 00:26:23;;;;;;;;;;;;;;;6.91;nan;100870.88;5007660;28;19921;-32
2022/12/12 00:28:48;;;;;;;;;;;;;;;6.94;nan;100867.78;5006454;28;19948;-32
2022/12/12 00:31:14;;;;;;;;;;;;;;;6.96;nan;100863.84;5006862;28;19917;-32
2022/12/12 00:33:39;;;;;;;;;;;;;;;6.99;nan;100862.59;5006233;28;19921;-32
2022/12/12 00:36:05;;;;;;;;;;;;;;;6.97;nan;100856.66;5007520;28;19918;-32
2022/12/12 00:38:30;;;;;;;;;;;;;;;6.98;nan;100853.78;5005815;28;20000;-32
2022/12/12 00:40:57;;;;;;;;;;;;;;;7.03;nan;100869.13;5008014;28;19917;-32
2022/12/12 00:43:23;;;;;;;;;;;;;;;7.04;nan;100870.75;5006966;28;20016;-32
2022/12/12 00:45:48;;;;;;;;;;;;;;;7.04;nan;100875.25;5006196;28;19933;-32
2022/12/12 00:48:14;;;;;;;;;;;;;;;7.05;nan;100868.91;5005773;28;19972;-32
2022/12/12 00:50:39;;;;;;;;;;;;;;;7.06;nan;100878.53;5007060;28;19925;-32
2022/12/12 00:53:04;;;;;;;;;;;;;;;7.08;nan;100887.09;5007436;28;19917;-32
2022/12/12 00:55:30;;;;;;;;;;;;;;;7.10;nan;100898.34;5006850;28;19963;-32
2022/12/12 00:57:55;;;;;;;;;;;;;;;7.13;nan;100889.91;5006240;28;20059;-32
2022/12/12 01:00:21;;;;;;;;;;;;;;;7.15;nan;100885.97;5004985;28;19956;-32
2022/12/12 01:02:47;;;;;;;;;;;;;;;7.19;nan;100881.88;5007379;28;19922;-32
2022/12/12 01:05:12;;;;;;;;;;;;;;;7.19;nan;100881.88;5007631;28;19971;-32
2022/12/12 01:07:38;;;;;;;;;;;;;;;7.20;nan;100874.69;5005284;28;21732;-32
2022/12/12 01:10:04;;;;;;;;;;;;;;;7.22;nan;100875.25;5006046;28;20153;-32
2022/12/12 01:12:30;;;;;;;;;;;;;;;7.22;nan;100868.09;5006530;28;19917;-32
2022/12/12 01:14:55;;;;;;;;;;;;;;;7.18;nan;100866.91;5007480;28;20367;-31
2022/12/12 01:17:20;;;;;;;;;;;;;;;7.15;nan;100863.84;5006586;28;20143;-32
2022/12/12 01:19:46;;;;;;;;;;;;;;;7.11;nan;100876.00;5006014;28;20749;-32
2022/12/12 01:22:11;;;;;;;;;;;;;;;7.12;nan;100869.63;5005546;28;19925;-32
2022/12/12 01:24:36;;;;;;;;;;;;;;;7.15;nan;100872.66;5005898;28;19929;-32
2022/12/12 01:27:02;;;;;;;;;;;;;;;7.19;nan;100865.06;5006997;28;19929;-32
2022/12/12 01:29:27;;;;;;;;;;;;;;;7.21;nan;100865.66;5009502;28;19933;-32
2022/12/12 01:31:53;;;;;;;;;;;;;;;7.23;nan;100863.56;5009886;28;19917;-32
2022/12/12 01:34:18;;;;;;;;;;;;;;;7.25;nan;100864.16;5011142;28;19926;-32
2022/12/12 01:36:43;;;;;;;;;;;;;;;7.24;nan;100866.00;5010989;28;19952;-32
2022/12/12 01:39:09;;;;;;;;;;;;;;;7.24;nan;100865.19;5010443;28;19918;-32
2022/12/12 01:41:34;;;;;;;;;;;;;;;7.25;nan;100859.63;5007522;28;19928;-32
2022/12/12 01:44:01;;;;;;;;;;;;;;;7.27;nan;100849.56;5009725;28;19922;-32
2022/12/12 01:46:40;;;;;;;;;;;;;;;7.27;nan;100854.91;5010236;28;19922;-32
2022/12/12 01:49:09;;;;;;;;;;;;;;;7.24;nan;100859.88;5010423;28;19971;-32
2022/12/12 01:51:35;;;;;;;;;;;;;;;7.24;nan;100859.88;5008268;28;20292;-32
2022/12/12 01:54:03;;;;;;;;;;;;;;;7.24;nan;100852.69;5008837;28;19918;-32
2022/12/12 01:56:29;;;;;;;;;;;;;;;7.25;nan;100858.81;5010173;28;20048;-32
2022/12/12 01:58:55;;;;;;;;;;;;;;;7.27;nan;100848.75;5010779;28;20357;-31
2022/12/12 02:01:21;;;;;;;;;;;;;;;7.28;nan;100850.38;5004805;28;20012;-32
2022/12/12 02:03:47;;;;;;;;;;;;;;;7.26;nan;100850.59;5008087;28;20009;-32
2022/12/12 02:06:15;;;;;;;;;;;;;;;7.23;nan;100858.25;5007976;28;19927;-32
2022/12/12 02:08:42;;;;;;;;;;;;;;;7.16;nan;100852.97;5004982;28;20389;-32
2022/12/12 02:11:07;;;;;;;;;;;;;;;7.15;nan;100851.34;5009247;28;20333;-32
2022/12/12 02:13:33;;;;;;;;;;;;;;;7.17;nan;100856.44;5008752;28;19928;-32
2022/12/12 02:16:04;;;;;;;;;;;;;;;7.20;nan;100851.50;5008618;28;19928;-32
2022/12/12 02:18:40;;;;;;;;;;;;;;;7.23;nan;100847.59;5006813;28;19918;-32
2022/12/12 02:21:24;;;;;;;;;;;;;;;7.26;nan;100844.47;5008808;28;19931;-32
2022/12/12 02:24:01;;;;;;;;;;;;;;;7.26;nan;100847.13;5010591;28;20157;-32
2022/12/12 02:26:44;;;;;;;;;;;;;;;7.29;nan;100846.69;5009266;28;19925;-32
2022/12/12 02:29:10;;;;;;;;;;;;;;;7.31;nan;100852.59;5008928;28;19924;-32
2022/12/12 02:31:38;;;;;;;;;;;;;;;7.26;nan;100858.59;5007524;28;20289;-32
2022/12/12 02:34:12;;;;;;;;;;;;;;;7.25;nan;100846.31;5009712;28;19917;-32
2022/12/12 02:36:55;;;;;;;;;;;;;;;7.28;nan;100855.72;5009621;28;19987;-32
2022/12/12 02:39:28;;;;;;;;;;;;;;;7.25;nan;100850.84;5006256;28;19929;-32
2022/12/12 02:41:58;;;;;;;;;;;;;;;7.22;nan;100859.28;5009974;28;19917;-32
2022/12/12 02:44:34;;;;;;;;;;;;;;;7.21;nan;100860.31;5009134;28;19917;-32
2022/12/12 02:47:06;;;;;;;;;;;;;;;7.25;nan;100856.97;5007608;28;20301;-32
2022/12/12 02:49:35;;;;;;;;;;;;;;;7.31;nan;100863.25;5008323;28;19932;-32
2022/12/12 02:52:02;;;;;;;;;;;;;;;7.35;nan;100869.75;5009168;28;19972;-32
2022/12/12 02:54:27;;;;;;;;;;;;;;;7.40;nan;100863.78;5008759;28;19922;-32
2022/12/12 02:56:54;;;;;;;;;;;;;;;7.42;nan;100861.69;5009902;28;19917;-32
2022/12/12 02:59:22;;;;;;;;;;;;;;;7.44;nan;100865.75;5006823;28;19983;-32
2022/12/12 03:01:53;;;;;;;;;;;;;;;7.44;nan;100865.75;5010679;28;20408;-32
2022/12/12 03:09:58;;;;;;;;;;;;;;;7.45;nan;100864.72;5007659;28;19924;-32
2022/12/12 03:12:39;;;;;;;;;;;;;;;7.45;nan;100867.41;5008723;28;19967;-32
2022/12/12 03:15:11;;;;;;;;;;;;;;;7.48;nan;100866.13;5008756;28;19921;-32
2022/12/12 03:18:03;;;;;;;;;;;;;;;7.50;nan;100869.38;5006602;28;19921;-32
2022/12/12 03:20:44;;;;;;;;;;;;;;;7.50;nan;100862.19;5005447;28;19917;-32
2022/12/12 03:23:20;;;;;;;;;;;;;;;7.51;nan;100871.81;5007671;28;19948;-32
2022/12/12 03:25:46;;;;;;;;;;;;;;;7.50;nan;100869.38;5008994;28;20320;-32
2022/12/12 03:28:22;;;;;;;;;;;;;;;7.49;nan;100865.91;5006789;28;20088;-32
2022/12/12 03:30:51;;;;;;;;;;;;;;;7.50;nan;100867.53;5009506;28;20296;-32
2022/12/12 03:33:19;;;;;;;;;;;;;;;7.51;nan;100865.66;5007179;28;19918;-32
2022/12/12 03:35:47;;;;;;;;;;;;;;;7.51;nan;100866.47;5009357;28;19933;-32
2022/12/12 03:38:12;;;;;;;;;;;;;;;7.51;nan;100879.00;5007183;28;19922;-32
2022/12/12 03:40:50;;;;;;;;;;;;;;;7.50;nan;100877.38;5009217;28;20294;-32
2022/12/12 03:43:20;;;;;;;;;;;;;;;7.46;nan;100869.03;5007129;28;19924;-32
2022/12/12 03:45:45;;;;;;;;;;;;;;;7.43;nan;100874.00;5005388;28;19928;-32
2022/12/12 03:48:14;;;;;;;;;;;;;;;7.41;nan;100879.53;5007861;28;19917;-32
2022/12/12 03:50:51;;;;;;;;;;;;;;;7.41;nan;100876.06;5007069;28;20381;-32
2022/12/12 03:53:39;;;;;;;;;;;;;;;7.38;nan;100882.66;5006552;28;20201;-32
2022/12/12 03:56:17;;;;;;;;;;;;;;;7.40;nan;100885.91;4986470;28;19917;-32
2022/12/12 03:58:51;;;;;;;;;;;;;;;7.43;nan;100879.31;5008268;28;19955;-32
2022/12/12 04:01:19;;;;;;;;;;;;;;;7.46;nan;100874.34;5005921;28;19921;-32
2022/12/12 04:03:59;;;;;;;;;;;;;;;7.47;nan;100872.50;5008919;28;19979;-31
2022/12/12 04:06:34;;;;;;;;;;;;;;;7.47;nan;100867.16;5007217;28;19956;-32
2022/12/12 04:15:10;;;;;;;;;;;;;;;7.48;nan;100866.94;5004886;28;20313;-32
2022/12/12 04:17:41;;;;;;;;;;;;;;;7.50;nan;100870.19;5007340;28;19929;-32
2022/12/12 04:23:17;;;;;;;;;;;;;;;7.47;nan;100867.16;5007658;28;20011;-32
2022/12/12 04:28:31;;;;;;;;;;;;;;;7.39;nan;100862.97;5005804;28;19994;-32
2022/12/12 04:31:00;;;;;;;;;;;;;;;7.39;nan;100862.97;5007517;28;20009;-32
2022/12/12 04:33:28;;;;;;;;;;;;;;;7.40;nan;100861.13;5006429;28;20480;-32
2022/12/12 04:35:55;;;;;;;;;;;;;;;7.41;nan;100863.56;5007004;28;19923;-32
2022/12/12 04:38:22;;;;;;;;;;;;;;;7.44;nan;100864.94;5005592;28;20634;-32
2022/12/12 04:40:53;;;;;;;;;;;;;;;7.44;nan;100864.94;5006997;28;21043;-32
2022/12/12 04:43:22;;;;;;;;;;;;;;;7.44;nan;100868.44;5006958;28;19964;-32
2022/12/12 04:45:50;;;;;;;;;;;;;;;7.41;nan;100866.22;5008555;28;19932;-32
2022/12/12 04:48:25;;;;;;;;;;;;;;;7.41;nan;100871.56;5020063;23;19934;-35
2022/12/12 04:50:51;;;;;;;;;;;;;;;7.43;nan;100863.31;5006504;28;20279;-34
2022/12/12 04:53:19;;;;;;;;;;;;;;;7.37;nan;100872.22;5006409;28;19917;-34
2022/12/12 04:55:49;;;;;;;;;;;;;;;7.32;nan;100866.72;5005735;28;19918;-34
2022/12/12 04:58:16;;;;;;;;;;;;;;;7.32;nan;100872.88;5006041;28;20273;-34
2022/12/12 05:00:48;;;;;;;;;;;;;;;7.34;nan;100870.81;5006735;28;19921;-34
2022/12/12 05:03:19;;;;;;;;;;;;;;;7.37;nan;100862.38;5005913;28;19980;-35
2022/12/12 05:05:47;;;;;;;;;;;;;;;7.38;nan;100872.00;5006251;28;20228;-35
2022/12/12 05:08:18;;;;;;;;;;;;;;;7.37;nan;100875.72;5005074;28;19918;-36
2022/12/12 05:10:45;;;;;;;;;;;;;;;7.40;nan;100877.09;5006329;28;19928;-35
2022/12/12 05:13:15;;;;;;;;;;;;;;;7.41;nan;100876.88;5006937;28;19963;-35
2022/12/12 05:15:40;;;;;;;;;;;;;;;7.39;nan;100873.63;5006713;28;19917;-35
2022/12/12 05:18:07;;;;;;;;;;;;;;;7.39;nan;100876.28;5006349;28;19925;-35
2022/12/12 05:20:32;;;;;;;;;;;;;;;7.38;nan;100876.53;5005932;28;20464;-35
2022/12/12 05:22:58;;;;;;;;;;;;;;;7.42;nan;100881.16;5004970;28;19928;-35
2022/12/12 05:25:23;;;;;;;;;;;;;;;7.45;nan;100879.91;5005119;28;20012;-34
2022/12/12 05:27:48;;;;;;;;;;;;;;;7.45;nan;100874.56;5003449;28;19925;-35
2022/12/12 05:30:14;;;;;;;;;;;;;;;7.46;nan;100878.88;5004576;28;19925;-34
2022/12/12 05:32:39;;;;;;;;;;;;;;;7.49;nan;100878.41;5004164;28;19986;-35
2022/12/12 05:35:05;;;;;;;;;;;;;;;7.51;nan;100877.16;5004958;28;19928;-34
2022/12/12 05:37:30;;;;;;;;;;;;;;;7.52;nan;100881.44;5002141;28;20163;-35
2022/12/12 05:39:56;;;;;;;;;;;;;;;7.48;nan;100869.59;5000806;28;20040;-35
2022/12/12 05:42:21;;;;;;;;;;;;;;;7.48;nan;100876.78;5002051;28;20016;-36
2022/12/12 05:44:47;;;;;;;;;;;;;;;7.46;nan;100873.53;5005826;28;19975;-34
2022/12/12 05:47:12;;;;;;;;;;;;;;;7.47;nan;100881.31;5003500;28;19922;-36
2022/12/12 05:49:37;;;;;;;;;;;;;;;7.45;nan;100878.06;5003833;28;20169;-34
2022/12/12 05:52:03;;;;;;;;;;;;;;;7.45;nan;100879.91;5002466;28;19917;-34
2022/12/12 05:54:28;;;;;;;;;;;;;;;7.46;nan;100892.19;5005625;28;19917;-36
2022/12/12 05:56:54;;;;;;;;;;;;;;;7.45;nan;100885.25;5005811;28;19926;-35
2022/12/12 05:59:19;;;;;;;;;;;;;;;7.46;nan;100892.19;5004360;28;19924;-36
2022/12/12 06:01:44;;;;;;;;;;;;;;;7.41;nan;100892.88;5002588;28;19925;-35
2022/12/12 06:04:10;;;;;;;;;;;;;;;7.39;nan;100900.28;5001235;28;19972;-34
2022/12/12 06:06:35;;;;;;;;;;;;;;;7.37;nan;100901.56;5000639;28;19922;-35
2022/12/12 06:09:00;;;;;;;;;;;;;;;7.31;nan;100913.09;5003422;28;19975;-36
2022/12/12 06:11:26;;;;;;;;;;;;;;;7.32;nan;100904.88;5002008;28;19917;-34
2022/12/12 06:13:51;;;;;;;;;;;;;;;7.33;nan;100911.00;5005148;28;19921;-34
2022/12/12 06:16:17;;;;;;;;;;;;;;;7.32;nan;100902.19;5008498;28;19960;-35
2022/12/12 06:18:43;;;;;;;;;;;;;;;7.31;nan;100907.75;5006925;28;19922;-34
2022/12/12 06:21:10;;;;;;;;;;;;;;;7.27;nan;100904.72;5006793;28;19917;-36
2022/12/12 06:23:36;;;;;;;;;;;;;;;7.28;nan;100909.81;5006980;28;19924;-34
2022/12/12 06:26:02;;;;;;;;;;;;;;;7.30;nan;100912.28;5007143;28;19969;-35
2022/12/12 06:28:27;;;;;;;;;;;;;;;7.30;nan;100903.47;5006716;28;19953;-37
2022/12/12 06:30:52;;;;;;;;;;;;;;;7.32;nan;100920.84;5004974;28;19924;-34
2022/12/12 06:33:18;;;;;;;;;;;;;;;7.33;nan;100921.66;5007915;28;19928;-35
2022/12/12 06:35:43;;;;;;;;;;;;;;;7.29;nan;100923.97;5008658;28;19917;-36
2022/12/12 06:38:08;;;;;;;;;;;;;;;7.31;nan;100927.22;5006834;28;19970;-35
2022/12/12 06:40:34;;;;;;;;;;;;;;;7.29;nan;100923.97;5006630;28;20142;-35
2022/12/12 06:42:59;;;;;;;;;;;;;;;7.26;nan;100927.91;5006048;28;19963;-35
2022/12/12 06:45:25;;;;;;;;;;;;;;;7.27;nan;100928.72;5006541;28;19940;-34
2022/12/12 06:47:50;;;;;;;;;;;;;;;7.25;nan;100925.44;5006635;28;19925;-35
2022/12/12 06:50:16;;;;;;;;;;;;;;;7.25;nan;100920.94;5006761;28;20373;-35
2022/12/12 06:52:41;;;;;;;;;;;;;;;7.23;nan;100928.34;5009006;28;19932;-34
2022/12/12 06:55:07;;;;;;;;;;;;;;;7.21;nan;100932.28;5006909;28;19922;-34
2022/12/12 06:57:32;;;;;;;;;;;;;;;7.21;nan;100934.94;5002557;28;19933;-35
2022/12/12 06:59:57;;;;;;;;;;;;;;;7.17;nan;100933.72;5003337;28;20285;-35
2022/12/12 07:02:23;;;;;;;;;;;;;;;7.11;nan;100932.75;5003645;28;19921;-35
2022/12/12 07:04:48;;;;;;;;;;;;;;;7.10;nan;100928.47;5004430;28;19936;-35
2022/12/12 07:07:14;;;;;;;;;;;;;;;7.08;nan;100927.06;5006899;28;19921;-35
2022/12/12 07:09:39;;;;;;;;;;;;;;;7.09;nan;100920.69;5002293;28;20080;-34
2022/12/12 07:12:04;;;;;;;;;;;;;;;7.10;nan;100935.66;5004450;28;19917;-35
2022/12/12 07:14:30;;;;;;;;;;;;;;;7.05;nan;100936.31;5006953;28;20173;-35
2022/12/12 07:16:55;;;;;;;;;;;;;;;7.06;nan;100943.28;5009935;28;19971;-34
2022/12/12 07:19:21;;;;;;;;;;;;;;;7.07;nan;100938.75;5008457;28;19932;-35
2022/12/12 07:21:47;;;;;;;;;;;;;;;7.08;nan;100940.38;5007290;28;20359;-34
2022/12/12 07:24:14;;;;;;;;;;;;;;;7.09;nan;100948.16;5008135;28;19917;-34
2022/12/12 07:26:40;;;;;;;;;;;;;;;7.03;nan;100945.56;5008275;28;20337;-34
2022/12/12 07:29:05;;;;;;;;;;;;;;;6.99;nan;100947.84;5008418;28;19924;-35
2022/12/12 07:31:31;;;;;;;;;;;;;;;6.98;nan;100947.03;5008294;28;19925;-34
2022/12/12 07:33:56;;;;;;;;;;;;;;;6.98;nan;100947.03;5009170;28;19917;-35
2022/12/12 07:36:21;;;;;;;;;;;;;;;7.01;nan;100951.13;5008358;28;19925;-35
2022/12/12 07:38:47;;;;;;;;;;;;;;;7.03;nan;100954.38;5008119;28;20183;-35
2022/12/12 07:41:14;;;;;;;;;;;;;;;7.07;nan;100963.56;5008330;28;19964;-34
2022/12/12 07:43:40;;;;;;;;;;;;;;;7.09;nan;100960.66;5007955;28;20468;-34
2022/12/12 07:46:06;;;;;;;;;;;;;;;7.09;nan;100964.16;5004497;28;19929;-36
2022/12/12 07:48:31;;;;;;;;;;;;;;;7.09;nan;100961.47;5003180;28;19944;-35
2022/12/12 07:50:58;;;;;;;;;;;;;;;7.07;nan;100965.41;5006114;28;20500;-35
2022/12/12 07:53:24;;;;;;;;;;;;;;;7.03;nan;100962.38;5008879;28;19921;-37
2022/12/12 07:55:49;;;;;;;;;;;;;;;7.02;nan;100960.75;5008110;28;19995;-34
2022/12/12 07:58:14;;;;;;;;;;;;;;;6.99;nan;100971.81;5008465;28;20345;-35
2022/12/12 08:00:39;;;;;;;;;;;;;;;7.00;nan;100976.09;5007633;28;19987;-36
2022/12/12 08:03:05;;;;;;;;;;;;;;;7.00;nan;100975.28;5008500;28;19918;-35
2022/12/12 08:05:30;;;;;;;;;;;;;;;6.94;nan;100969.81;5008159;28;19917;-35
2022/12/12 08:07:55;;;;;;;;;;;;;;;6.96;nan;100970.41;5007534;28;20033;-35
2022/12/12 08:10:21;;;;;;;;;;;;;;;6.95;nan;100970.63;5008581;28;19922;-34
2022/12/12 08:12:46;;;;;;;;;;;;;;;6.96;nan;100970.41;5006938;28;19921;-35
2022/12/12 08:15:16;;;;;;;;;;;;;;;6.96;nan;100972.25;5008604;28;19970;-34
2022/12/12 08:17:42;;;;;;;;;;;;;;;6.95;nan;100973.28;5006820;28;19967;-34
2022/12/12 08:20:07;;;;;;;;;;;;;;;6.96;nan;100967.75;5008397;28;19929;-35
2022/12/12 08:22:33;;;;;;;;;;;;;;;7.00;nan;100975.28;5007660;28;19921;-37
2022/12/12 08:24:58;;;;;;;;;;;;;;;7.03;nan;100980.19;5008173;28;19917;-34
2022/12/12 08:27:23;;;;;;;;;;;;;;;7.05;nan;100972.81;5007926;28;20331;-36
2022/12/12 08:29:51;;;;;;;;;;;;;;;7.07;nan;100970.72;5007318;28;19932;-34
2022/12/12 08:32:16;;;;;;;;;;;;;;;7.07;nan;100978.72;5008011;28;19917;-34
2022/12/12 08:34:42;;;;;;;;;;;;;;;7.06;nan;100985.09;5007121;28;20012;-34
2022/12/12 08:37:07;;;;;;;;;;;;;;;7.04;nan;100979.97;5008301;28;19918;-34
2022/12/12 08:39:32;;;;;;;;;;;;;;;7.04;nan;100981.84;5006874;28;19924;-35
2022/12/12 08:41:59;;;;;;;;;;;;;;;7.03;nan;100981.03;5007849;28;19929;-35
2022/12/12 08:44:24;;;;;;;;;;;;;;;7.04;nan;100981.84;5007976;28;20434;-37
2022/12/12 08:46:49;;;;;;;;;;;;;;;7.09;nan;100985.47;5006863;28;20031;-36
2022/12/12 08:49:15;;;;;;;;;;;;;;;7.09;nan;100988.13;5007474;28;20377;-35
2022/12/12 08:51:41;;;;;;;;;;;;;;;7.07;nan;100995.53;5005183;28;19957;-36
2022/12/12 08:54:07;;;;;;;;;;;;;;;7.04;nan;100992.50;5008082;28;20322;-34
2022/12/12 08:56:32;;;;;;;;;;;;;;;7.05;nan;100994.13;5006777;28;20348;-34
2022/12/12 08:58:57;;;;;;;;;;;;;;;7.02;nan;100995.38;5006729;28;19926;-36
2022/12/12 09:01:24;;;;;;;;;;;;;;;7.03;nan;100990.84;5007419;28;20399;-35
2022/12/12 09:03:51;;;;;;;;;;;;;;;7.01;nan;100987.59;5007006;28;20044;-34
2022/12/12 09:06:16;;;;;;;;;;;;;;;7.02;nan;100994.56;5007977;28;19925;-34
2022/12/12 09:08:42;;;;;;;;;;;;;;;7.01;nan;100996.41;5006340;28;20458;-35
2022/12/12 09:11:08;;;;;;;;;;;;;;;7.03;nan;100997.00;5007870;28;19918;-37
2022/12/12 09:13:34;;;;;;;;;;;;;;;7.04;nan;101006.63;5006286;28;19921;-35
2022/12/12 09:15:59;;;;;;;;;;;;;;;7.07;nan;100995.53;5007574;28;19963;-34
2022/12/12 09:18:25;;;;;;;;;;;;;;;7.07;nan;101002.69;5006689;28;20365;-34
2022/12/12 09:20:51;;;;;;;;;;;;;;;7.07;nan;101000.03;5006790;28;19928;-35
2022/12/12 09:23:17;;;;;;;;;;;;;;;7.07;nan;100995.53;5007574;28;19940;-35
2022/12/12 09:25:43;;;;;;;;;;;;;;;7.05;nan;101002.09;5005983;28;19921;-35
2022/12/12 09:28:10;;;;;;;;;;;;;;;7.12;nan;101010.84;5006760;28;20380;-34
2022/12/12 09:30:35;;;;;;;;;;;;;;;7.15;nan;101015.75;5006489;28;19917;-34
2022/12/12 09:33:01;;;;;;;;;;;;;;;7.19;nan;101022.28;5007162;28;19948;-35
2022/12/12 09:35:26;;;;;;;;;;;;;;;7.21;nan;101018.38;5006758;28;19917;-34
2022/12/12 09:37:52;;;;;;;;;;;;;;;7.23;nan;101026.13;5006425;28;19921;-35
2022/12/12 09:40:25;;;;;;;;;;;;;;;7.25;nan;101027.53;5007345;28;20008;-35
2022/12/12 09:42:50;;;;;;;;;;;;;;;7.28;nan;101032.44;5006384;28;20012;-34
2022/12/12 09:45:17;;;;;;;;;;;;;;;7.33;nan;101023.78;5007077;28;20008;-34
2022/12/12 09:47:44;;;;;;;;;;;;;;;7.43;nan;101021.44;5005313;28;19931;-34
2022/12/12 09:50:25;;;;;;;;;;;;;;;7.45;nan;101027.34;5011371;28;19941;-35
2022/12/12 09:52:51;;;;;;;;;;;;;;;7.46;nan;101022.84;5010398;28;20498;-35
2022/12/12 09:55:19;;;;;;;;;;;;;;;7.42;nan;101025.13;5011046;28;19924;-35
2022/12/12 09:57:47;;;;;;;;;;;;;;;7.40;nan;101019.19;5009526;28;20336;-34
2022/12/12 10:00:13;;;;;;;;;;;;;;;7.37;nan;101024.16;5011168;28;19928;-35
2022/12/12 10:02:45;;;;;;;;;;;;;;;7.29;nan;101025.25;5009167;28;19956;-35
2022/12/12 10:05:29;;;;;;;;;;;;;;;7.23;nan;101028.81;4992969;28;19917;-34
2022/12/12 10:07:54;;;;;;;;;;;;;;;7.28;nan;101026.28;5009739;28;20425;-35
2022/12/12 10:10:22;;;;;;;;;;;;;;;7.27;nan;101016.66;5010642;28;19914;-37
2022/12/12 10:12:48;;;;;;;;;;;;;;;7.35;nan;101021.69;5009615;28;19961;-35
2022/12/12 10:15:28;;;;;;;;;;;;;;;7.42;nan;101018.97;5010734;28;20415;-35
2022/12/12 10:17:55;;;;;;;;;;;;;;;7.44;nan;101019.56;5009242;28;20233;-34
2022/12/12 10:20:23;;;;;;;;;;;;;;;7.48;nan;101018.09;5010306;28;19924;-36
2022/12/12 10:22:55;;;;;;;;;;;;;;;7.43;nan;101013.44;5009313;28;19921;-35
2022/12/12 10:25:35;;;;;;;;;;;;;;;7.36;nan;101015.34;5010484;28;19964;-37
2022/12/12 10:28:08;;;;;;;;;;;;;;;7.28;nan;101016.44;5009990;28;19925;-34
2022/12/12 10:30:36;;;;;;;;;;;;;;;7.28;nan;101018.28;5009847;28;19978;-35
2022/12/12 10:33:01;;;;;;;;;;;;;;;7.31;nan;101014.38;5010347;28;19921;-34
2022/12/12 10:35:26;;;;;;;;;;;;;;;7.30;nan;101013.53;5006694;28;19920;-35
2022/12/12 10:38:01;;;;;;;;;;;;;;;7.31;nan;101006.38;5008820;28;19922;-35
2022/12/12 10:40:35;;;;;;;;;;;;;;;7.34;nan;101011.25;5009671;28;19925;-34
2022/12/12 10:43:01;;;;;;;;;;;;;;;7.33;nan;101010.44;5010041;28;19995;-34
2022/12/12 10:45:49;;;;;;;;;;;;;;;7.39;nan;101012.25;5009768;28;19914;-35
2022/12/12 10:48:15;;;;;;;;;;;;;;;7.42;nan;101016.31;5019616;23;19952;-32
2022/12/12 10:50:46;;;;;;;;;;;;;;;7.40;nan;101011.22;4997782;28;19969;-32
2022/12/12 10:53:11;;;;;;;;;;;;;;;7.45;nan;101016.69;4996054;28;19956;-32
2022/12/12 10:55:46;;;;;;;;;;;;;;;7.46;nan;101012.97;5003344;28;20426;-32
2022/12/12 10:58:12;;;;;;;;;;;;;;;7.49;nan;101012.53;4997765;28;19936;-32
2022/12/12 11:00:39;;;;;;;;;;;;;;;7.49;nan;101012.53;4994200;28;20004;-32
2022/12/12 11:03:20;;;;;;;;;;;;;;;7.48;nan;101010.09;4999567;28;19953;-32
2022/12/12 11:05:45;;;;;;;;;;;;;;;7.38;nan;101015.13;4995908;28;20403;-32
2022/12/12 11:08:20;;;;;;;;;;;;;;;7.41;nan;101020.03;4997151;28;19918;-32
2022/12/12 11:10:57;;;;;;;;;;;;;;;7.43;nan;101017.94;5003748;28;19969;-32
2022/12/12 11:13:22;;;;;;;;;;;;;;;7.51;nan;101025.63;4996925;28;19917;-32
2022/12/12 11:15:55;;;;;;;;;;;;;;;7.56;nan;101023.97;4998275;28;19921;-32
2022/12/12 11:18:21;;;;;;;;;;;;;;;7.61;nan;101028.63;5001541;28;20369;-32
2022/12/12 11:20:51;;;;;;;;;;;;;;;7.68;nan;101029.34;4998534;28;19948;-32
2022/12/12 11:23:22;;;;;;;;;;;;;;;7.78;nan;101031.53;4994032;28;19917;-32
2022/12/12 11:26:02;;;;;;;;;;;;;;;7.82;nan;101030.84;4995136;28;20404;-32
2022/12/12 11:28:30;;;;;;;;;;;;;;;7.75;nan;101035.44;5001316;28;19921;-32
2022/12/12 11:30:55;;;;;;;;;;;;;;;7.64;nan;101027.38;4998515;28;19961;-32
2022/12/12 11:33:22;;;;;;;;;;;;;;;7.56;nan;101029.28;4996845;28;19992;-32
2022/12/12 11:35:53;;;;;;;;;;;;;;;7.50;nan;101038.16;5003559;28;19922;-32
2022/12/12 11:38:21;;;;;;;;;;;;;;;7.40;nan;101027.19;4987055;28;19917;-32
2022/12/12 11:40:55;;;;;;;;;;;;;;;7.30;nan;101021.53;4995897;28;19917;-32
2022/12/12 11:43:28;;;;;;;;;;;;;;;7.24;nan;101020.59;5002448;28;19921;-32
2022/12/12 11:45:59;;;;;;;;;;;;;;;7.24;nan;101025.91;4994312;28;20614;-32
2022/12/12 11:48:31;;;;;;;;;;;;;;;7.19;nan;101017.78;4997377;28;19918;-32
2022/12/12 11:50:56;;;;;;;;;;;;;;;7.09;nan;101021.94;5000243;28;19932;-32
2022/12/12 11:53:22;;;;;;;;;;;;;;;7.07;nan;101016.03;4993520;28;19917;-32
2022/12/12 11:55:56;;;;;;;;;;;;;;;7.03;nan;101012.16;5000501;28;19918;-32
2022/12/12 11:58:26;;;;;;;;;;;;;;;7.07;nan;101018.69;4999087;28;20356;-32
2022/12/12 12:01:02;;;;;;;;;;;;;;;7.02;nan;101014.03;5000243;28;19917;-32
2022/12/12 12:03:36;;;;;;;;;;;;;;;7.02;nan;101015.88;4995196;28;19925;-32
2022/12/12 12:06:14;;;;;;;;;;;;;;;7.06;nan;101012.53;4997479;28;19924;-32
2022/12/12 12:08:49;;;;;;;;;;;;;;;7.11;nan;101010.03;4999290;28;19948;-32
2022/12/12 12:11:26;;;;;;;;;;;;;;;7.20;nan;101013.25;4993629;28;19921;-32
2022/12/12 12:13:55;;;;;;;;;;;;;;;7.24;nan;101014.44;4992978;28;19918;-32
2022/12/12 12:16:39;;;;;;;;;;;;;;;7.14;nan;101008.78;4999778;28;20377;-32
2022/12/12 12:19:20;;;;;;;;;;;;;;;7.05;nan;101002.09;4999612;28;19922;-32
2022/12/12 12:21:45;;;;;;;;;;;;;;;7.01;nan;101014.25;4993574;28;19925;-32
2022/12/12 12:24:43;;;;;;;;;;;;;;;6.98;nan;101021.59;4996213;28;19913;-32
2022/12/12 12:27:17;;;;;;;;;;;;;;;6.96;nan;101028.19;4964371;28;19926;-32
2022/12/12 12:30:09;;;;;;;;;;;;;;;6.92;nan;101016.34;4995354;28;19928;-32
2022/12/12 12:32:53;;;;;;;;;;;;;;;6.89;nan;101022.13;4998690;28;19963;-32
2022/12/12 12:35:21;;;;;;;;;;;;;;;6.83;nan;101023.81;4997174;28;20133;-32
2022/12/12 12:37:53;;;;;;;;;;;;;;;6.79;nan;101016.44;5000295;28;20642;-32
2022/12/12 12:40:24;;;;;;;;;;;;;;;6.71;nan;101017.53;4995951;28;19918;-32
2022/12/12 12:42:49;;;;;;;;;;;;;;;6.66;nan;101012.03;5001127;28;19972;-32
2022/12/12 12:45:38;;;;;;;;;;;;;;;6.64;nan;101016.75;4992555;28;19941;-32
2022/12/12 12:48:14;;;;;;;;;;;;;;;6.59;nan;101021.91;4992776;28;19983;-32
2022/12/12 12:50:43;;;;;;;;;;;;;;;6.55;nan;101016.19;4993246;28;19963;-32
2022/12/12 12:53:27;;;;;;;;;;;;;;;6.57;nan;101018.66;4993727;28;19921;-32
2022/12/12 12:55:55;;;;;;;;;;;;;;;6.51;nan;101009.69;4994704;28;20374;-32
2022/12/12 12:58:24;;;;;;;;;;;;;;;6.45;nan;101015.03;4994937;28;19921;-32
2022/12/12 13:00:54;;;;;;;;;;;;;;;6.45;nan;101009.72;4994689;28;19926;-32
2022/12/12 13:03:23;;;;;;;;;;;;;;;6.38;nan;101004.44;4999407;28;19941;-32
2022/12/12 13:05:56;;;;;;;;;;;;;;;6.33;nan;100999.75;4994948;28;19923;-32
2022/12/12 13:08:40;;;;;;;;;;;;;;;6.29;nan;101001.22;4998163;28;20377;-32
2022/12/12 13:11:09;;;;;;;;;;;;;;;6.34;nan;101005.91;4991615;28;20197;-32
2022/12/12 13:13:39;;;;;;;;;;;;;;;6.38;nan;100995.63;4994046;28;19956;-32
2022/12/12 13:16:10;;;;;;;;;;;;;;;6.39;nan;100999.94;4993855;28;19918;-32
2022/12/12 13:18:36;;;;;;;;;;;;;;;6.37;nan;101000.16;4995637;28;20057;-32
2022/12/12 13:21:20;;;;;;;;;;;;;;;6.35;nan;101008.34;4991198;28;19922;-32
2022/12/12 13:23:48;;;;;;;;;;;;;;;6.32;nan;101024.75;4988640;28;19944;-32
2022/12/12 13:26:24;;;;;;;;;;;;;;;6.29;nan;101032.34;4995845;28;19929;-32
2022/12/12 13:28:57;;;;;;;;;;;;;;;6.26;nan;101027.41;4993773;28;20048;-32
2022/12/12 13:31:34;;;;;;;;;;;;;;;6.22;nan;101024.38;4996258;28;20329;-32
2022/12/12 13:34:02;;;;;;;;;;;;;;;6.20;nan;101030.94;4995057;28;20666;-32